Time;durP1;ratioP1;P1;durP2;ratioP2;P2;SDS_P1;SDS_P2;PMS_P1;PMS_P2;Temp;Humidity;BMP_temperature;BMP_pressure;BME280_temperature;BME280_humidity;BME280_pressure;Samples;Min_cycle;Max_cycle;Signal;HPM_P1;HPM_P2
2022/06/14 00:00:54;;;;;;;3.12;0.82;;;18.40;41.80;;;;;;2614588;52;21404;-75
2022/06/14 00:03:28;;;;;;;1.65;0.80;;;18.30;41.80;;;;;;2355896;53;20949;-73
2022/06/14 00:05:55;;;;;;;2.58;1.08;;;18.30;41.90;;;;;;2360140;53;20938;-73
2022/06/14 00:08:25;;;;;;;2.50;0.90;;;18.30;42.00;;;;;;2350477;53;21073;-73
2022/06/14 00:10:53;;;;;;;3.33;1.23;;;18.20;42.10;;;;;;2368469;53;21421;-76
2022/06/14 00:13:19;;;;;;;3.53;1.10;;;18.20;42.40;;;;;;2348893;53;21578;-73
2022/06/14 00:15:46;;;;;;;2.40;1.00;;;18.10;42.60;;;;;;2352932;53;20952;-75
2022/06/14 00:18:14;;;;;;;2.70;1.10;;;18.10;42.80;;;;;;2349223;53;20915;-78
2022/06/14 00:20:40;;;;;;;3.08;1.15;;;18.10;43.00;;;;;;2365863;53;22133;-73
2022/06/14 00:23:07;;;;;;;2.45;1.20;;;18.10;42.90;;;;;;2348393;53;21018;-73
2022/06/14 00:25:36;;;;;;;1.75;0.70;;;18.10;43.00;;;;;;2490736;52;20938;-74
2022/06/14 00:28:06;;;;;;;2.40;0.90;;;18.00;43.00;;;;;;2352677;53;21810;-73
2022/06/14 00:30:33;;;;;;;3.20;1.10;;;18.00;43.00;;;;;;2348167;53;20969;-76
2022/06/14 00:32:59;;;;;;;1.95;0.80;;;18.00;43.00;;;;;;2371266;53;21085;-77
2022/06/14 00:35:25;;;;;;;2.10;0.93;;;18.00;43.20;;;;;;2436999;53;21768;-76
2022/06/14 00:37:52;;;;;;;3.28;0.90;;;17.90;43.20;;;;;;2346475;53;20973;-74
2022/06/14 00:40:20;;;;;;;2.70;1.00;;;17.90;43.30;;;;;;2356330;54;21510;-74
2022/06/14 00:42:47;;;;;;;2.30;1.10;;;17.80;43.20;;;;;;2439032;53;20983;-74
2022/06/14 00:46:31;;;;;;;2.45;0.95;;;17.80;43.20;;;;;;2325657;53;22042;-74
2022/06/14 00:49:10;;;;;;;1.75;0.80;;;17.80;43.80;;;;;;2339759;53;20909;-74
2022/06/14 00:51:40;;;;;;;2.30;0.98;;;17.80;43.40;;;;;;2368175;53;22004;-75
2022/06/14 00:54:15;;;;;;;3.33;1.02;;;17.70;43.20;;;;;;2343465;53;20917;-72
2022/06/14 00:57:28;;;;;;;2.12;0.90;;;17.70;43.50;;;;;;2349902;54;20944;-72
2022/06/14 00:59:57;;;;;;;2.40;0.90;;;17.70;43.90;;;;;;2523282;52;21008;-73
2022/06/14 01:02:27;;;;;;;3.95;1.00;;;17.50;43.30;;;;;;2355299;53;21046;-72
2022/06/14 01:04:53;;;;;;;2.40;1.12;;;17.60;43.50;;;;;;2346497;53;20992;-75
2022/06/14 01:07:28;;;;;;;2.37;0.80;;;17.60;43.60;;;;;;2320838;53;21023;-73
2022/06/14 01:10:09;;;;;;;2.30;1.00;;;17.50;43.70;;;;;;2409341;53;20937;-74
2022/06/14 01:12:36;;;;;;;2.80;1.20;;;17.50;43.70;;;;;;2345776;53;20968;-73
2022/06/14 01:15:26;;;;;;;2.33;1.00;;;17.50;43.80;;;;;;2456560;52;20949;-71
2022/06/14 01:17:58;;;;;;;2.50;1.00;;;17.50;44.20;;;;;;2353184;54;20954;-76
2022/06/14 01:20:25;;;;;;;;;;;17.40;44.10;;;;;;2543143;52;21005;-75
2022/06/14 01:22:52;;;;;;;2.03;0.75;;;17.40;44.30;;;;;;2348928;53;20178;-73
2022/06/14 01:25:18;;;;;;;3.90;0.88;;;17.40;43.70;;;;;;2346989;53;20973;-74
2022/06/14 01:27:44;;;;;;;2.25;0.85;;;17.30;43.90;;;;;;2367686;53;21361;-71
2022/06/14 01:30:22;;;;;;;2.22;0.93;;;17.30;44.10;;;;;;2356209;53;21014;-74
2022/06/14 01:32:54;;;;;;;2.13;0.93;;;17.30;44.30;;;;;;2321160;53;1797225;-73
2022/06/14 01:35:27;;;;;;;2.87;1.00;;;17.20;44.40;;;;;;2365093;53;21002;-71
2022/06/14 01:37:54;;;;;;;2.12;0.90;;;17.20;44.40;;;;;;2359909;53;21002;-71
2022/06/14 01:42:16;;;;;;;3.22;1.30;;;17.20;44.30;;;;;;2369893;53;20993;-74
2022/06/14 01:45:05;;;;;;;1.67;0.82;;;17.10;44.60;;;;;;2358427;53;20979;-76
2022/06/14 01:47:46;;;;;;;2.50;0.90;;;17.10;44.60;;;;;;2352005;53;20935;-76
2022/06/14 01:51:53;;;;;;;2.12;0.90;;;17.10;45.10;;;;;;2361051;53;20934;-73
2022/06/14 01:55:28;;;;;;;2.33;1.08;;;17.00;44.90;;;;;;2376203;52;21042;-74
2022/06/14 01:58:21;;;;;;;3.70;1.12;;;17.00;45.20;;;;;;2355069;53;21005;-74
2022/06/14 02:02:17;;;;;;;2.33;1.00;;;17.00;44.50;;;;;;2345127;53;20934;-75
2022/06/14 02:05:32;;;;;;;2.28;0.82;;;16.90;44.60;;;;;;2356608;53;21006;-76
2022/06/14 02:08:15;;;;;;;1.65;0.70;;;16.90;44.50;;;;;;2356660;53;21022;-74
2022/06/14 02:11:34;;;;;;;2.00;0.90;;;16.90;44.80;;;;;;2346460;53;20962;-74
2022/06/14 02:14:24;;;;;;;4.07;1.08;;;16.80;45.10;;;;;;2407263;52;20958;-73
2022/06/14 02:19:35;;;;;;;2.50;1.10;;;16.80;45.10;;;;;;2359580;53;21803;-77
2022/06/14 02:22:13;;;;;;;2.53;0.70;;;16.80;45.20;;;;;;2359185;53;20930;-72
2022/06/14 02:24:52;;;;;;;2.85;0.85;;;16.70;44.60;;;;;;2487142;52;20954;-73
2022/06/14 02:27:27;;;;;;;2.37;1.10;;;16.70;44.90;;;;;;2359635;53;20918;-75
2022/06/14 02:29:57;;;;;;;2.10;0.88;;;16.70;45.00;;;;;;2556719;52;20974;-76
2022/06/14 02:32:28;;;;;;;3.28;1.05;;;16.60;44.90;;;;;;2363159;52;20955;-72
2022/06/14 02:35:05;;;;;;;1.95;0.93;;;16.60;45.00;;;;;;2501455;52;20951;-73
2022/06/14 02:39:31;;;;;;;3.40;1.20;;;16.60;45.10;;;;;;2344784;53;21049;-72
2022/06/14 02:42:03;;;;;;;2.17;0.88;;;16.50;45.70;;;;;;2368563;53;20976;-76
2022/06/14 02:44:53;;;;;;;2.15;0.90;;;16.50;45.20;;;;;;2326475;54;20944;-73
2022/06/14 02:47:25;;;;;;;3.75;0.93;;;16.50;45.30;;;;;;2334713;53;20981;-71
2022/06/14 02:49:55;;;;;;;6.00;1.30;;;16.50;45.30;;;;;;2347818;53;20938;-73
2022/06/14 02:52:43;;;;;;;3.03;1.08;;;16.40;45.30;;;;;;2364540;53;20952;-75
2022/06/14 02:55:33;;;;;;;2.20;0.85;;;16.40;45.40;;;;;;2391458;53;20962;-72
2022/06/14 02:58:10;;;;;;;2.53;1.20;;;16.40;45.40;;;;;;2397605;53;21278;-76
2022/06/14 03:00:40;;;;;;;2.30;0.93;;;16.30;45.40;;;;;;2345418;53;20944;-73
2022/06/14 03:03:15;;;;;;;2.70;1.05;;;16.30;45.40;;;;;;2392445;52;20997;-73
2022/06/14 03:05:56;;;;;;;2.53;0.80;;;16.20;45.30;;;;;;2363269;53;21036;-73
2022/06/14 03:08:36;;;;;;;2.10;0.90;;;16.20;45.60;;;;;;2364039;53;20959;-76
2022/06/14 03:12:39;;;;;;;2.20;1.02;;;16.10;45.60;;;;;;2340228;53;20953;-76
2022/06/14 03:15:15;;;;;;;2.53;1.00;;;16.20;46.00;;;;;;2357283;53;20959;-72
2022/06/14 03:18:36;;;;;;;2.40;1.10;;;16.10;45.50;;;;;;2396315;52;21663;-75
2022/06/14 03:21:19;;;;;;;2.40;1.25;;;16.10;45.90;;;;;;2417946;52;21341;-75
2022/06/14 03:25:11;;;;;;;2.40;1.02;;;16.00;45.80;;;;;;2352292;53;20998;-75
2022/06/14 03:27:43;;;;;;;2.87;0.90;;;16.00;46.20;;;;;;2360301;53;20982;-71
2022/06/14 03:30:35;;;;;;;2.42;0.90;;;16.00;45.80;;;;;;2408154;52;20958;-77
2022/06/14 03:33:22;;;;;;;2.40;0.98;;;15.90;46.00;;;;;;2383744;53;21035;-73
2022/06/14 03:35:51;;;;;;;4.47;0.93;;;15.90;45.80;;;;;;2345175;53;21030;-74
2022/06/14 03:38:24;;;;;;;2.03;0.95;;;15.90;45.90;;;;;;2344181;53;21022;-73
2022/06/14 03:40:51;;;;;;;2.17;1.10;;;15.80;45.90;;;;;;2362879;53;21030;-76
2022/06/14 03:43:18;;;;;;;1.95;0.98;;;15.80;45.90;;;;;;2366021;53;20978;-76
2022/06/14 03:46:09;;;;;;;2.60;1.15;;;15.80;45.90;;;;;;2349630;53;21451;-73
2022/06/14 03:48:37;;;;;;;2.08;0.95;;;15.80;46.40;;;;;;2354389;53;20966;-76
2022/06/14 03:54:31;;;;;;;2.40;1.02;;;15.80;46.20;;;;;;2499353;52;21318;-73
2022/06/14 03:57:32;;;;;;;2.80;1.07;;;15.70;46.40;;;;;;2425259;52;20930;-73
2022/06/14 04:00:21;;;;;;;2.20;0.90;;;15.70;46.40;;;;;;2349119;53;20946;-76
2022/06/14 04:04:17;;;;;;;3.45;1.10;;;15.70;46.70;;;;;;2448687;52;21063;-74
2022/06/14 04:07:29;;;;;;;2.40;1.05;;;15.60;46.80;;;;;;2473836;52;20966;-73
2022/06/14 04:12:58;;;;;;;2.47;1.20;;;15.60;46.80;;;;;;2361401;53;20962;-78
2022/06/14 04:15:49;;;;;;;1.90;0.77;;;15.60;47.10;;;;;;2351449;53;21018;-75
2022/06/14 04:19:50;;;;;;;3.97;1.15;;;15.60;46.80;;;;;;2373117;53;20922;-73
2022/06/14 04:23:01;;;;;;;2.47;1.00;;;15.50;47.00;;;;;;2362330;52;21018;-75
2022/06/14 04:27:20;;;;;;;2.60;1.20;;;15.50;46.90;;;;;;2351548;53;21013;-76
2022/06/14 04:29:58;;;;;;;3.75;1.20;;;15.50;47.10;;;;;;2361410;53;20998;-74
2022/06/14 04:32:46;;;;;;;3.17;1.10;;;15.50;46.90;;;;;;2347575;53;21018;-74
2022/06/14 04:36:47;;;;;;;2.33;1.17;;;15.50;47.20;;;;;;2426730;53;21000;-76
2022/06/14 04:39:16;;;;;;;2.75;1.12;;;15.50;47.60;;;;;;2358863;53;20962;-74
2022/06/14 04:42:01;;;;;;;2.90;1.05;;;15.50;47.20;;;;;;2364857;53;20949;-77
2022/06/14 04:44:54;;;;;;;2.45;1.08;;;15.50;47.60;;;;;;2356982;53;20941;-77
2022/06/14 04:48:12;;;;;;;2.40;1.27;;;15.50;47.90;;;;;;2411194;52;21002;-76
2022/06/14 04:50:44;;;;;;;2.30;1.17;;;15.50;47.50;;;;;;2459544;52;21020;-74
2022/06/14 04:53:21;;;;;;;3.45;1.33;;;15.50;47.70;;;;;;2459624;52;20967;-74
2022/06/14 04:56:15;;;;;;;2.95;1.27;;;15.50;48.00;;;;;;2396872;52;21830;-72
2022/06/14 05:01:20;;;;;;;3.83;1.52;;;15.50;47.90;;;;;;2350558;53;21013;-71
2022/06/14 05:06:48;;;;;;;2.30;1.20;;;15.60;48.40;;;;;;2370251;53;21578;-76
2022/06/14 05:09:40;;;;;;;3.12;1.12;;;15.60;47.90;;;;;;2352277;53;20958;-76
2022/06/14 05:12:33;;;;;;;2.65;1.25;;;15.70;48.30;;;;;;2367652;53;20946;-72
2022/06/14 05:15:17;;;;;;;3.10;1.40;;;15.70;48.20;;;;;;2360535;53;21018;-73
2022/06/14 05:17:53;;;;;;;;;;;15.70;48.60;;;;;;2361267;53;20977;-72
2022/06/14 05:22:18;;;;;;;4.18;1.25;;;15.80;48.70;;;;;;2358936;53;20122;-73
2022/06/14 05:24:45;;;;;;;3.35;1.17;;;15.80;48.40;;;;;;2435155;52;21006;-73
2022/06/14 05:27:44;;;;;;;2.70;1.15;;;15.90;48.30;;;;;;2343954;53;21804;-72
2022/06/14 05:30:40;;;;;;;2.78;1.17;;;16.00;48.90;;;;;;2590066;52;21511;-73
2022/06/14 05:33:37;;;;;;;4.50;1.98;;;16.00;49.10;;;;;;2420172;52;21038;-73
2022/06/14 05:36:14;;;;;;;6.32;2.15;;;16.10;50.00;;;;;;2405021;52;20954;-73
2022/06/14 05:38:50;;;;;;;4.20;1.83;;;16.20;49.10;;;;;;2355209;53;20978;-77
2022/06/14 05:41:57;;;;;;;4.50;1.75;;;16.20;49.20;;;;;;2341407;53;21056;-73
2022/06/14 05:44:30;;;;;;;4.18;1.85;;;16.20;49.60;;;;;;2371158;53;20988;-79
2022/06/14 05:46:58;;;;;;;3.53;1.80;;;16.30;49.50;;;;;;2373214;53;21830;-74
2022/06/14 05:49:33;;;;;;;5.18;1.92;;;16.40;49.50;;;;;;2349954;53;21018;-73
2022/06/14 05:52:30;;;;;;;3.42;1.83;;;16.40;50.00;;;;;;2368850;53;21021;-74
2022/06/14 05:56:08;;;;;;;4.87;2.03;;;16.50;50.10;;;;;;2395490;52;21822;-75
2022/06/14 05:59:56;;;;;;;4.57;1.85;;;16.60;50.30;;;;;;2439700;52;21010;-74
2022/06/14 06:03:45;;;;;;;3.65;1.48;;;16.70;50.10;;;;;;2368348;53;21581;-73
2022/06/14 06:06:19;;;;;;;4.10;1.80;;;16.80;50.20;;;;;;2355519;53;20982;-73
2022/06/14 06:08:57;;;;;;;3.72;1.80;;;16.90;49.80;;;;;;2350673;53;20969;-73
2022/06/14 06:11:32;;;;;;;6.35;2.10;;;16.90;50.30;;;;;;2393060;52;21025;-73
2022/06/14 06:14:39;;;;;;;3.55;1.55;;;17.00;50.10;;;;;;2534760;52;20958;-73
2022/06/14 06:17:24;;;;;;;4.55;1.73;;;17.10;50.70;;;;;;2447467;52;21034;-74
2022/06/14 06:20:32;;;;;;;5.05;1.75;;;17.20;50.40;;;;;;2359140;53;20943;-73
2022/06/14 06:23:10;;;;;;;4.37;1.70;;;17.20;50.70;;;;;;2358316;53;21552;-73
2022/06/14 06:25:40;;;;;;;5.18;2.37;;;17.40;50.70;;;;;;2598816;52;20963;-73
2022/06/14 06:28:17;;;;;;;3.42;1.60;;;17.40;50.40;;;;;;2587271;52;20903;-73
2022/06/14 06:30:49;;;;;;;3.60;1.90;;;17.50;50.70;;;;;;2379760;53;22115;-76
2022/06/14 06:33:16;;;;;;;4.62;1.95;;;17.50;50.60;;;;;;2361790;53;21133;-73
2022/06/14 06:36:06;;;;;;;5.12;1.87;;;17.60;50.60;;;;;;2577281;52;20994;-74
2022/06/14 06:38:52;;;;;;;3.25;1.30;;;17.80;50.80;;;;;;2341965;56;21515;-73
2022/06/14 06:44:15;;;;;;;4.75;1.58;;;17.90;50.70;;;;;;2418862;53;21003;-75
2022/06/14 06:46:45;;;;;;;3.65;1.70;;;18.00;51.00;;;;;;2361624;53;21584;-76
2022/06/14 06:49:12;;;;;;;3.30;1.77;;;18.10;51.00;;;;;;2532576;52;20998;-76
2022/06/14 06:51:45;;;;;;;3.65;1.87;;;18.20;50.90;;;;;;2354638;53;21688;-75
2022/06/14 06:54:22;;;;;;;;;;;18.30;51.10;;;;;;2541806;52;20981;-74
2022/06/14 06:56:50;;;;;;;3.37;1.33;;;18.40;51.10;;;;;;2352719;53;20081;-73
2022/06/14 06:59:31;;;;;;;3.50;1.50;;;18.50;50.70;;;;;;2357536;53;20933;-73
2022/06/14 07:01:59;;;;;;;4.40;1.50;;;18.60;51.00;;;;;;2354158;53;20934;-74
2022/06/14 07:07:25;;;;;;;;;;;18.70;50.90;;;;;;2363508;53;20965;-73
2022/06/14 07:10:00;;;;;;;3.15;1.65;;;18.80;51.10;;;;;;2351505;53;20112;-73
2022/06/14 07:12:42;;;;;;;4.40;1.77;;;19.00;50.80;;;;;;2357669;53;21031;-73
2022/06/14 07:16:52;;;;;;;4.68;1.80;;;19.00;50.70;;;;;;2373049;52;20946;-74
2022/06/14 07:22:51;;;;;;;3.30;1.60;;;19.20;51.00;;;;;;2357715;53;21392;-74
2022/06/14 07:25:23;;;;;;;2.15;1.10;;;19.30;50.90;;;;;;2360877;53;20917;-74
2022/06/14 07:28:05;;;;;;;3.65;1.52;;;19.50;50.60;;;;;;2360076;53;21229;-74
2022/06/14 07:30:46;;;;;;;2.60;1.33;;;19.60;50.80;;;;;;2490152;52;20948;-73
2022/06/14 07:33:13;;;;;;;4.07;1.60;;;19.70;50.80;;;;;;2355370;53;20993;-74
2022/06/14 07:35:44;;;;;;;3.92;1.73;;;19.80;50.70;;;;;;2361115;53;21009;-76
2022/06/14 07:38:56;;;;;;;3.37;1.73;;;19.90;50.90;;;;;;2361466;53;20949;-76
2022/06/14 07:41:41;;;;;;;3.78;1.48;;;20.10;51.00;;;;;;2361299;53;20942;-73
2022/06/14 07:49:13;;;;;;;3.67;1.58;;;20.20;51.30;;;;;;2361972;53;20910;-72
2022/06/14 07:51:53;;;;;;;4.07;1.55;;;20.50;50.90;;;;;;2361736;53;20914;-73
2022/06/14 07:54:30;;;;;;;4.43;1.60;;;20.70;50.60;;;;;;2422728;52;20942;-74
2022/06/14 07:57:05;;;;;;;2.83;1.42;;;20.80;50.90;;;;;;2347213;54;21499;-74
2022/06/14 07:59:34;;;;;;;4.85;1.92;;;20.90;50.80;;;;;;2368352;53;20985;-74
2022/06/14 08:02:19;;;;;;;4.10;1.90;;;21.00;50.60;;;;;;2362493;53;20950;-74
2022/06/14 08:04:55;;;;;;;4.45;1.85;;;21.10;50.80;;;;;;2605031;52;21020;-76
2022/06/14 08:07:21;;;;;;;4.55;1.95;;;21.20;50.60;;;;;;2363513;53;20993;-74
2022/06/14 08:10:14;;;;;;;4.25;1.87;;;21.30;50.50;;;;;;2361761;53;21039;-74
2022/06/14 08:12:43;;;;;;;4.25;1.67;;;21.40;50.40;;;;;;2361938;53;21906;-75
2022/06/14 08:15:25;;;;;;;4.37;1.73;;;21.50;50.30;;;;;;2560109;52;20978;-77
2022/06/14 08:21:04;;;;;;;5.28;2.17;;;21.60;50.00;;;;;;2399799;52;20998;-76
2022/06/14 08:23:55;;;;;;;4.40;1.45;;;21.90;49.90;;;;;;2335294;53;20929;-78
2022/06/14 08:27:53;;;;;;;4.22;1.62;;;22.00;49.50;;;;;;2410446;53;20973;-74
2022/06/14 08:30:37;;;;;;;5.15;1.77;;;22.10;49.50;;;;;;2578066;52;20924;-74
2022/06/14 08:33:11;;;;;;;4.20;1.90;;;22.20;49.70;;;;;;2335902;53;21888;-75
2022/06/14 08:35:51;;;;;;;4.25;1.50;;;22.30;49.90;;;;;;2334346;53;20999;-74
2022/06/14 08:38:25;;;;;;;5.05;1.60;;;22.40;49.50;;;;;;2364124;52;20942;-74
2022/06/14 08:43:59;;;;;;;3.40;1.60;;;22.50;49.30;;;;;;2400388;53;21000;-75
2022/06/14 08:46:41;;;;;;;3.22;1.48;;;22.70;49.10;;;;;;2350029;53;21545;-75
2022/06/14 08:49:10;;;;;;;4.90;1.60;;;22.80;48.90;;;;;;2362993;53;20958;-75
2022/06/14 08:52:03;;;;;;;4.43;1.62;;;22.80;48.90;;;;;;2362494;53;21590;-76
2022/06/14 08:57:56;;;;;;;4.72;1.58;;;22.90;48.80;;;;;;2364303;52;21041;-79
2022/06/14 09:03:10;;;;;;;3.17;1.33;;;23.10;48.80;;;;;;2419296;52;22075;-74
2022/06/14 09:10:19;;;;;;;4.50;1.48;;;23.40;48.60;;;;;;2406999;52;21554;-75
2022/06/14 09:19:00;;;;;;;3.70;1.17;;;23.60;48.50;;;;;;2362168;53;20922;-75
2022/06/14 09:23:17;;;;;;;3.55;1.20;;;23.90;48.20;;;;;;2527770;52;20950;-76
2022/06/14 09:26:37;;;;;;;3.58;1.20;;;24.10;48.10;;;;;;2603135;52;20950;-75
2022/06/14 09:29:36;;;;;;;4.55;1.50;;;24.20;48.00;;;;;;2368644;53;20974;-75
2022/06/14 09:33:45;;;;;;;3.83;1.50;;;24.30;47.80;;;;;;2363542;52;20942;-76
2022/06/14 09:36:42;;;;;;;3.97;1.60;;;24.40;47.80;;;;;;2614554;52;21349;-74
2022/06/14 09:39:38;;;;;;;2.67;1.27;;;24.50;47.50;;;;;;2335872;53;20933;-75
2022/06/14 09:42:41;;;;;;;3.53;1.55;;;24.60;47.60;;;;;;2365322;53;21541;-76
2022/06/14 09:45:40;;;;;;;4.12;1.60;;;24.70;47.50;;;;;;2362101;53;20918;-75
2022/06/14 09:50:56;;;;;;;3.97;1.60;;;24.80;47.60;;;;;;2355034;53;20940;-76
2022/06/14 09:55:21;;;;;;;3.00;1.23;;;24.90;47.20;;;;;;2430343;52;20969;-77
2022/06/14 10:00:51;;;;;;;4.35;1.33;;;25.20;47.20;;;;;;2466211;52;21280;-75
2022/06/14 10:04:45;;;;;;;2.80;1.20;;;25.40;46.80;;;;;;2360964;53;21020;-77
2022/06/14 10:10:29;;;;;;;4.40;1.30;;;25.50;46.60;;;;;;2357931;53;20957;-76
2022/06/14 10:14:37;;;;;;;2.47;1.10;;;25.70;46.40;;;;;;2362649;53;20898;-75
2022/06/14 10:23:12;;;;;;;6.53;1.85;;;25.80;46.20;;;;;;2608677;52;21553;-75
2022/06/14 10:28:56;;;;;;;3.62;1.37;;;26.20;45.60;;;;;;2366255;53;21295;-75
2022/06/14 10:32:02;;;;;;;3.72;1.60;;;26.30;44.80;;;;;;2365647;53;21369;-77
2022/06/14 10:36:13;;;;;;;3.90;1.60;;;26.30;44.50;;;;;;2459036;52;20950;-75
2022/06/14 10:39:17;;;;;;;3.08;1.25;;;26.40;44.40;;;;;;2367466;53;20930;-75
2022/06/14 10:41:51;;;;;;;2.95;1.30;;;26.50;44.20;;;;;;2380568;52;20910;-75
2022/06/14 10:45:55;;;;;;;3.67;1.60;;;26.60;44.80;;;;;;2376707;52;20928;-75
2022/06/14 10:49:17;;;;;;;3.53;1.50;;;26.70;44.30;;;;;;2616646;52;20911;-75
2022/06/14 10:54:28;;;;;;;3.47;1.55;;;26.80;43.70;;;;;;2365692;53;20926;-74
2022/06/14 11:00:08;;;;;;;3.30;1.27;;;26.90;43.40;;;;;;2365388;53;20993;-79
2022/06/14 11:03:12;;;;;;;3.58;1.30;;;27.10;43.70;;;;;;2361601;53;20985;-75
2022/06/14 11:08:58;;;;;;;3.58;1.27;;;27.10;43.00;;;;;;2365252;53;21005;-75
2022/06/14 11:11:55;;;;;;;2.33;1.00;;;27.20;43.30;;;;;;2534487;52;20957;-77
2022/06/14 11:14:43;;;;;;;3.08;1.17;;;27.30;43.00;;;;;;2364651;53;21882;-78
2022/06/14 11:18:11;;;;;;;4.00;1.52;;;27.40;42.80;;;;;;2361994;53;21518;-75
2022/06/14 11:20:56;;;;;;;3.67;1.27;;;27.40;42.50;;;;;;2360380;53;21977;-77
2022/06/14 11:23:29;;;;;;;3.25;1.27;;;27.50;42.20;;;;;;2362866;53;20918;-77
2022/06/14 11:26:15;;;;;;;2.90;1.25;;;27.60;42.20;;;;;;2424331;52;21137;-75
2022/06/14 11:29:06;;;;;;;2.85;1.33;;;27.60;41.90;;;;;;2359190;53;21545;-77
2022/06/14 11:31:49;;;;;;;5.50;1.60;;;27.70;41.60;;;;;;2511202;52;20950;-75
2022/06/14 11:34:56;;;;;;;4.45;1.50;;;27.70;41.70;;;;;;2363143;53;20961;-74
2022/06/14 11:38:26;;;;;;;3.25;1.33;;;27.80;41.40;;;;;;2357177;53;20981;-77
2022/06/14 11:40:57;;;;;;;3.65;1.20;;;27.90;41.40;;;;;;2357781;53;20955;-75
2022/06/14 11:47:30;;;;;;;3.60;1.50;;;28.00;41.70;;;;;;2358733;53;20974;-73
2022/06/14 11:50:13;;;;;;;3.30;1.10;;;28.10;41.70;;;;;;2346152;53;20952;-75
2022/06/14 11:53:17;;;;;;;4.32;1.95;;;28.20;41.20;;;;;;2360651;53;21025;-75
2022/06/14 11:56:02;;;;;;;3.97;1.55;;;28.20;41.10;;;;;;2357175;54;21092;-75
2022/06/14 12:12:06;;;;;;;3.92;1.30;;;28.20;40.70;;;;;;2370031;52;20960;-74
2022/06/14 12:14:58;;;;;;;2.20;1.00;;;28.30;40.50;;;;;;2571479;52;22114;-77
2022/06/14 12:18:00;;;;;;;2.95;1.40;;;28.60;40.70;;;;;;2326367;54;21555;-76
2022/06/14 12:20:27;;;;;;;2.58;1.27;;;28.60;40.80;;;;;;2347367;54;21008;-79
2022/06/14 12:27:26;;;;;;;2.83;1.42;;;28.60;40.80;;;;;;2396782;52;20962;-75
2022/06/14 12:29:52;;;;;;;2.58;1.10;;;28.80;40.70;;;;;;2353503;53;22053;-76
2022/06/14 12:32:31;;;;;;;4.05;1.50;;;28.80;40.20;;;;;;2347477;53;20964;-78
2022/06/14 12:35:12;;;;;;;3.33;1.40;;;28.90;39.80;;;;;;2349918;53;21079;-76
2022/06/14 12:37:53;;;;;;;3.22;1.30;;;28.90;39.70;;;;;;2338500;54;21001;-75
2022/06/14 12:44:02;;;;;;;3.90;1.58;;;29.00;39.50;;;;;;2371037;52;20959;-78
2022/06/14 12:46:31;;;;;;;3.28;1.40;;;29.00;39.50;;;;;;2327727;53;22061;-76
2022/06/14 12:50:02;;;;;;;3.12;1.45;;;29.10;39.70;;;;;;2348215;53;20969;-77
2022/06/14 12:52:39;;;;;;;5.72;1.50;;;29.10;39.70;;;;;;2324883;53;20973;-76
2022/06/14 12:55:22;;;;;;;3.17;1.60;;;29.20;39.00;;;;;;2357385;53;20926;-79
2022/06/14 12:59:34;;;;;;;2.92;1.25;;;29.20;38.90;;;;;;2353836;54;22315;-76
2022/06/14 13:02:52;;;;;;;3.35;1.48;;;29.30;38.90;;;;;;2342828;53;20957;-80
2022/06/14 13:05:24;;;;;;;2.65;1.37;;;29.30;38.90;;;;;;2332086;53;20974;-76
2022/06/14 13:08:23;;;;;;;3.42;1.52;;;29.40;38.90;;;;;;2479875;53;20992;-76
2022/06/14 13:11:01;;;;;;;3.35;1.40;;;29.40;39.20;;;;;;2488893;53;20953;-76
2022/06/14 13:15:47;;;;;;;4.05;1.55;;;29.50;38.80;;;;;;2329242;54;20955;-77
2022/06/14 13:19:51;;;;;;;3.22;1.27;;;29.60;38.80;;;;;;2592010;53;21021;-74
2022/06/14 13:22:57;;;;;;;2.85;1.40;;;29.60;38.70;;;;;;2482112;53;20958;-75
2022/06/14 13:27:14;;;;;;;3.50;1.30;;;29.70;38.60;;;;;;2548326;52;20962;-75
2022/06/14 13:30:04;;;;;;;3.80;1.70;;;29.80;38.80;;;;;;2359824;53;20907;-74
2022/06/14 13:32:56;;;;;;;3.83;1.35;;;29.90;38.10;;;;;;2351565;53;21527;-80
2022/06/14 13:35:54;;;;;;;3.85;1.42;;;29.90;37.90;;;;;;2565281;52;20942;-80
2022/06/14 13:38:35;;;;;;;5.03;1.58;;;29.90;37.70;;;;;;2340496;54;21887;-77
2022/06/14 13:44:16;;;;;;;3.08;1.50;;;29.90;38.00;;;;;;2384742;53;20923;-76
2022/06/14 13:46:52;;;;;;;4.00;1.60;;;30.00;38.20;;;;;;2368519;53;20949;-77
2022/06/14 13:49:37;;;;;;;3.87;1.48;;;30.10;37.90;;;;;;2364975;53;21470;-76
2022/06/14 13:52:10;;;;;;;3.60;1.42;;;30.10;37.60;;;;;;2386359;53;20928;-76
2022/06/14 13:54:51;;;;;;;;;;;30.20;38.10;;;;;;2648167;52;20943;-76
2022/06/14 13:58:09;;;;;;;2.83;1.12;;;30.30;38.20;;;;;;2389124;53;20112;-75
2022/06/14 14:00:52;;;;;;;3.20;1.50;;;30.30;37.70;;;;;;2376323;53;21550;-75
2022/06/14 14:03:39;;;;;;;5.65;1.52;;;30.40;37.40;;;;;;2387942;53;20971;-77
2022/06/14 14:06:17;;;;;;;3.33;1.60;;;30.40;37.10;;;;;;2634473;52;21175;-78
2022/06/14 14:12:14;;;;;;;3.85;1.30;;;30.50;36.90;;;;;;2365741;52;20938;-76
2022/06/14 14:16:39;;;;;;;3.47;1.50;;;30.50;36.80;;;;;;2390330;53;20947;-76
2022/06/14 14:19:44;;;;;;;3.03;1.23;;;30.70;36.90;;;;;;2374322;53;21032;-76
2022/06/14 14:22:30;;;;;;;3.97;1.65;;;30.70;36.70;;;;;;2390808;53;21258;-79
2022/06/14 14:25:05;;;;;;;4.90;1.27;;;30.80;36.40;;;;;;2375656;52;21057;-76
2022/06/14 14:28:29;;;;;;;3.60;1.37;;;30.80;36.60;;;;;;2366690;52;20997;-75
2022/06/14 14:32:58;;;;;;;4.90;1.37;;;30.80;36.40;;;;;;2390348;53;21001;-76
2022/06/14 14:35:39;;;;;;;3.50;1.50;;;30.80;36.20;;;;;;2375076;53;21550;-79
2022/06/14 14:38:15;;;;;;;4.00;1.37;;;30.90;36.00;;;;;;2431066;52;20967;-76
2022/06/14 14:41:32;;;;;;;6.90;1.90;;;30.90;36.00;;;;;;2386113;53;21003;-76
2022/06/14 14:44:13;;;;;;;4.57;1.27;;;31.00;36.20;;;;;;2374009;53;20953;-77
2022/06/14 14:46:49;;;;;;;4.40;1.65;;;30.90;36.10;;;;;;2361230;53;21014;-76
2022/06/14 14:49:21;;;;;;;5.22;1.65;;;31.00;36.00;;;;;;2371072;53;20980;-75
2022/06/14 14:52:18;;;;;;;3.97;1.58;;;31.00;35.90;;;;;;2382946;53;20951;-76
2022/06/14 14:55:16;;;;;;;3.90;1.90;;;31.00;35.40;;;;;;2362150;52;20921;-77
2022/06/14 14:59:22;;;;;;;4.65;1.70;;;31.00;35.40;;;;;;2383889;53;21047;-76
2022/06/14 15:08:21;;;;;;;3.45;1.50;;;31.00;35.40;;;;;;2431573;52;20953;-78
2022/06/14 15:11:18;;;;;;;2.95;1.40;;;31.00;35.10;;;;;;2384242;53;21050;-76
2022/06/14 15:13:52;;;;;;;2.70;1.20;;;31.00;35.10;;;;;;2377456;53;21560;-77
2022/06/14 15:16:31;;;;;;;3.90;1.42;;;31.00;35.30;;;;;;2382272;53;21441;-76
2022/06/14 15:22:18;;;;;;;4.47;1.33;;;31.00;35.20;;;;;;2424987;52;21035;-76
2022/06/14 15:24:55;;;;;;;3.87;1.48;;;31.00;34.90;;;;;;2643541;52;20987;-77
2022/06/14 15:27:38;;;;;;;3.05;1.45;;;31.00;35.00;;;;;;2386032;53;21027;-76
2022/06/14 15:30:06;;;;;;;3.67;1.58;;;31.10;34.90;;;;;;2386001;53;21070;-78
2022/06/14 15:32:32;;;;;;;4.82;1.67;;;31.00;34.80;;;;;;2386153;53;21956;-76
2022/06/14 15:35:19;;;;;;;3.95;1.50;;;31.00;35.40;;;;;;2544296;52;20924;-76
2022/06/14 15:38:20;;;;;;;3.78;1.50;;;31.10;34.70;;;;;;2384494;53;20991;-79
2022/06/14 15:40:46;;;;;;;3.83;1.67;;;31.10;34.30;;;;;;2385382;53;20992;-78
2022/06/14 15:43:26;;;;;;;3.55;1.58;;;31.00;34.30;;;;;;2385934;53;20971;-76
2022/06/14 15:45:54;;;;;;;5.00;1.80;;;31.00;33.80;;;;;;2407866;52;20916;-76
2022/06/14 15:48:55;;;;;;;3.83;1.67;;;31.00;34.10;;;;;;2388221;53;20936;-77
2022/06/14 15:51:22;;;;;;;5.18;1.50;;;31.00;34.10;;;;;;2398646;52;20932;-77
2022/06/14 15:53:49;;;;;;;3.80;1.60;;;31.00;34.00;;;;;;2379797;53;20976;-77
2022/06/14 15:56:28;;;;;;;3.45;1.30;;;30.90;33.80;;;;;;2595221;52;21022;-76
2022/06/14 15:58:57;;;;;;;3.10;1.40;;;30.90;33.90;;;;;;2386422;53;20947;-77
2022/06/14 16:01:35;;;;;;;2.97;1.35;;;30.90;34.00;;;;;;2373582;53;20932;-77
2022/06/14 16:04:12;;;;;;;2.80;1.30;;;30.90;34.00;;;;;;2359087;53;20950;-76
2022/06/14 16:06:58;;;;;;;2.97;1.30;;;30.90;33.50;;;;;;2360879;53;20958;-76
2022/06/14 16:09:31;;;;;;;3.58;1.58;;;30.90;33.70;;;;;;2383331;52;21036;-76
2022/06/14 16:12:04;;;;;;;9.25;1.50;;;30.90;33.70;;;;;;2357655;53;20926;-76
2022/06/14 16:14:37;;;;;;;4.93;1.70;;;30.90;33.60;;;;;;2356241;53;20934;-76
2022/06/14 16:17:22;;;;;;;3.05;1.60;;;30.90;33.60;;;;;;2358086;53;20982;-78
2022/06/14 16:23:32;;;;;;;3.30;1.30;;;30.90;33.40;;;;;;2610111;52;20974;-78
2022/06/14 16:26:01;;;;;;;2.50;0.90;;;30.90;33.50;;;;;;2351450;53;21397;-76
2022/06/14 16:28:54;;;;;;;3.75;1.60;;;31.00;34.00;;;;;;2363875;53;21008;-76
2022/06/14 16:31:27;;;;;;;3.20;1.45;;;31.00;33.60;;;;;;2381788;53;20943;-76
2022/06/14 16:34:14;;;;;;;3.17;1.37;;;31.00;34.40;;;;;;2374172;53;21012;-75
2022/06/14 16:37:01;;;;;;;3.42;1.48;;;31.00;33.70;;;;;;2511627;52;21593;-73
2022/06/14 16:39:41;;;;;;;2.75;1.12;;;31.00;33.60;;;;;;2358999;53;21965;-74
2022/06/14 16:42:23;;;;;;;6.22;1.50;;;31.00;33.30;;;;;;2361497;53;20938;-75
2022/06/14 16:45:18;;;;;;;3.47;1.42;;;31.00;33.20;;;;;;2352923;54;20968;-75
2022/06/14 16:47:57;;;;;;;2.40;1.10;;;31.00;33.00;;;;;;2350619;53;21052;-76
2022/06/14 16:50:44;;;;;;;3.78;1.45;;;31.00;33.10;;;;;;2357534;53;21533;-76